sensor_id;sensor_type;location;lat;lon;timestamp;P1;durP1;ratioP1;P2;durP2;ratioP2
26908;SDS011;14477;51.038;4.588;2023-05-10T00:01:30;5.30;;;3.40;;
26908;SDS011;14477;51.038;4.588;2023-05-10T00:03:56;6.20;;;3.10;;
26908;SDS011;14477;51.038;4.588;2023-05-10T00:06:22;6.17;;;3.43;;
26908;SDS011;14477;51.038;4.588;2023-05-10T00:08:48;6.63;;;3.80;;
26908;SDS011;14477;51.038;4.588;2023-05-10T00:11:14;6.63;;;3.55;;
26908;SDS011;14477;51.038;4.588;2023-05-10T00:13:40;7.17;;;3.50;;
26908;SDS011;14477;51.038;4.588;2023-05-10T00:16:06;5.63;;;3.70;;
26908;SDS011;14477;51.038;4.588;2023-05-10T00:18:31;5.28;;;3.17;;
26908;SDS011;14477;51.038;4.588;2023-05-10T00:20:57;6.27;;;3.30;;
26908;SDS011;14477;51.038;4.588;2023-05-10T00:23:23;6.05;;;3.60;;
26908;SDS011;14477;51.038;4.588;2023-05-10T00:25:49;5.63;;;3.20;;
26908;SDS011;14477;51.038;4.588;2023-05-10T00:28:15;7.07;;;3.60;;
26908;SDS011;14477;51.038;4.588;2023-05-10T00:30:40;6.18;;;3.45;;
26908;SDS011;14477;51.038;4.588;2023-05-10T00:33:06;6.47;;;3.23;;
26908;SDS011;14477;51.038;4.588;2023-05-10T00:35:32;6.57;;;3.45;;
26908;SDS011;14477;51.038;4.588;2023-05-10T00:37:59;7.00;;;3.40;;
26908;SDS011;14477;51.038;4.588;2023-05-10T00:40:25;6.07;;;3.10;;
26908;SDS011;14477;51.038;4.588;2023-05-10T00:42:51;6.82;;;3.35;;
26908;SDS011;14477;51.038;4.588;2023-05-10T00:45:16;5.65;;;3.60;;
26908;SDS011;14477;51.038;4.588;2023-05-10T00:47:42;7.90;;;3.43;;
26908;SDS011;14477;51.038;4.588;2023-05-10T00:50:08;6.75;;;3.40;;
26908;SDS011;14477;51.038;4.588;2023-05-10T00:52:34;5.22;;;3.00;;
26908;SDS011;14477;51.038;4.588;2023-05-10T00:55:00;6.60;;;3.10;;
26908;SDS011;14477;51.038;4.588;2023-05-10T00:57:27;6.22;;;3.38;;
26908;SDS011;14477;51.038;4.588;2023-05-10T00:59:53;6.32;;;3.05;;
26908;SDS011;14477;51.038;4.588;2023-05-10T01:02:19;6.00;;;3.33;;
26908;SDS011;14477;51.038;4.588;2023-05-10T01:04:45;7.13;;;3.20;;
26908;SDS011;14477;51.038;4.588;2023-05-10T01:07:11;6.70;;;3.08;;
26908;SDS011;14477;51.038;4.588;2023-05-10T01:09:37;6.57;;;3.33;;
26908;SDS011;14477;51.038;4.588;2023-05-10T01:12:03;5.90;;;3.17;;
26908;SDS011;14477;51.038;4.588;2023-05-10T01:14:31;6.60;;;3.60;;
26908;SDS011;14477;51.038;4.588;2023-05-10T01:16:58;6.38;;;3.33;;
26908;SDS011;14477;51.038;4.588;2023-05-10T01:19:26;6.35;;;2.88;;
26908;SDS011;14477;51.038;4.588;2023-05-10T01:24:38;6.43;;;3.35;;
26908;SDS011;14477;51.038;4.588;2023-05-10T01:38:42;6.15;;;3.55;;
26908;SDS011;14477;51.038;4.588;2023-05-10T01:46:46;7.05;;;4.00;;
26908;SDS011;14477;51.038;4.588;2023-05-10T01:49:25;6.97;;;3.60;;
26908;SDS011;14477;51.038;4.588;2023-05-10T01:51:54;8.30;;;4.10;;
26908;SDS011;14477;51.038;4.588;2023-05-10T01:54:25;7.82;;;3.58;;
26908;SDS011;14477;51.038;4.588;2023-05-10T01:57:01;6.97;;;3.50;;
26908;SDS011;14477;51.038;4.588;2023-05-10T01:59:34;7.57;;;4.07;;
26908;SDS011;14477;51.038;4.588;2023-05-10T02:02:02;6.37;;;3.80;;
26908;SDS011;14477;51.038;4.588;2023-05-10T02:04:29;7.30;;;3.83;;
26908;SDS011;14477;51.038;4.588;2023-05-10T02:06:57;9.70;;;4.03;;
26908;SDS011;14477;51.038;4.588;2023-05-10T02:09:23;7.70;;;4.07;;
26908;SDS011;14477;51.038;4.588;2023-05-10T02:11:51;7.45;;;4.10;;
26908;SDS011;14477;51.038;4.588;2023-05-10T02:14:18;6.60;;;3.57;;
26908;SDS011;14477;51.038;4.588;2023-05-10T02:16:46;8.70;;;3.85;;
26908;SDS011;14477;51.038;4.588;2023-05-10T02:19:13;8.18;;;3.70;;
26908;SDS011;14477;51.038;4.588;2023-05-10T02:21:40;8.13;;;4.18;;
26908;SDS011;14477;51.038;4.588;2023-05-10T02:24:07;6.50;;;3.63;;
26908;SDS011;14477;51.038;4.588;2023-05-10T02:26:34;8.00;;;3.90;;
26908;SDS011;14477;51.038;4.588;2023-05-10T02:29:03;7.18;;;3.78;;
26908;SDS011;14477;51.038;4.588;2023-05-10T02:31:32;7.60;;;3.92;;
26908;SDS011;14477;51.038;4.588;2023-05-10T02:33:59;7.05;;;4.30;;
26908;SDS011;14477;51.038;4.588;2023-05-10T02:36:26;7.07;;;4.15;;
26908;SDS011;14477;51.038;4.588;2023-05-10T02:38:53;7.10;;;4.00;;
26908;SDS011;14477;51.038;4.588;2023-05-10T02:41:23;6.85;;;3.83;;
26908;SDS011;14477;51.038;4.588;2023-05-10T02:43:51;7.65;;;3.72;;
26908;SDS011;14477;51.038;4.588;2023-05-10T02:46:22;7.07;;;3.80;;
26908;SDS011;14477;51.038;4.588;2023-05-10T02:48:48;5.85;;;3.50;;
26908;SDS011;14477;51.038;4.588;2023-05-10T02:51:14;7.43;;;4.07;;
26908;SDS011;14477;51.038;4.588;2023-05-10T02:53:43;6.55;;;3.78;;
26908;SDS011;14477;51.038;4.588;2023-05-10T02:56:13;6.50;;;3.60;;
26908;SDS011;14477;51.038;4.588;2023-05-10T02:58:42;6.30;;;3.58;;
26908;SDS011;14477;51.038;4.588;2023-05-10T03:01:08;7.00;;;4.27;;
26908;SDS011;14477;51.038;4.588;2023-05-10T03:03:34;7.53;;;4.05;;
26908;SDS011;14477;51.038;4.588;2023-05-10T03:06:00;8.50;;;4.05;;
26908;SDS011;14477;51.038;4.588;2023-05-10T03:08:26;7.97;;;4.43;;
26908;SDS011;14477;51.038;4.588;2023-05-10T03:16:16;7.55;;;3.97;;
26908;SDS011;14477;51.038;4.588;2023-05-10T03:19:01;8.27;;;4.28;;
26908;SDS011;14477;51.038;4.588;2023-05-10T03:21:43;9.02;;;4.35;;
26908;SDS011;14477;51.038;4.588;2023-05-10T03:24:15;9.73;;;5.30;;
26908;SDS011;14477;51.038;4.588;2023-05-10T03:26:43;8.88;;;4.70;;
26908;SDS011;14477;51.038;4.588;2023-05-10T03:29:11;8.85;;;4.75;;
26908;SDS011;14477;51.038;4.588;2023-05-10T03:31:39;9.57;;;4.93;;
26908;SDS011;14477;51.038;4.588;2023-05-10T03:34:06;9.95;;;4.75;;
26908;SDS011;14477;51.038;4.588;2023-05-10T03:36:32;10.93;;;5.07;;
26908;SDS011;14477;51.038;4.588;2023-05-10T03:38:58;11.88;;;5.65;;
26908;SDS011;14477;51.038;4.588;2023-05-10T03:41:24;11.15;;;5.45;;
26908;SDS011;14477;51.038;4.588;2023-05-10T03:43:50;10.07;;;5.10;;
26908;SDS011;14477;51.038;4.588;2023-05-10T03:46:16;10.53;;;5.63;;
26908;SDS011;14477;51.038;4.588;2023-05-10T03:48:42;8.30;;;4.50;;
26908;SDS011;14477;51.038;4.588;2023-05-10T03:51:08;9.98;;;5.18;;
26908;SDS011;14477;51.038;4.588;2023-05-10T03:53:34;11.50;;;5.57;;
26908;SDS011;14477;51.038;4.588;2023-05-10T03:56:00;10.05;;;5.15;;
26908;SDS011;14477;51.038;4.588;2023-05-10T03:58:26;9.88;;;5.03;;
26908;SDS011;14477;51.038;4.588;2023-05-10T04:00:53;11.57;;;5.53;;
26908;SDS011;14477;51.038;4.588;2023-05-10T04:03:19;9.83;;;5.10;;
26908;SDS011;14477;51.038;4.588;2023-05-10T04:05:45;9.80;;;5.32;;
26908;SDS011;14477;51.038;4.588;2023-05-10T04:08:11;10.32;;;5.10;;
26908;SDS011;14477;51.038;4.588;2023-05-10T04:10:37;11.45;;;5.75;;
26908;SDS011;14477;51.038;4.588;2023-05-10T04:13:02;11.43;;;6.00;;
26908;SDS011;14477;51.038;4.588;2023-05-10T04:15:28;11.23;;;5.68;;
26908;SDS011;14477;51.038;4.588;2023-05-10T04:17:54;10.60;;;5.20;;
26908;SDS011;14477;51.038;4.588;2023-05-10T04:20:20;11.98;;;5.90;;
26908;SDS011;14477;51.038;4.588;2023-05-10T04:22:45;12.27;;;5.83;;
26908;SDS011;14477;51.038;4.588;2023-05-10T04:25:11;11.35;;;5.65;;
26908;SDS011;14477;51.038;4.588;2023-05-10T04:27:37;12.90;;;6.25;;
26908;SDS011;14477;51.038;4.588;2023-05-10T04:30:03;12.13;;;6.10;;
26908;SDS011;14477;51.038;4.588;2023-05-10T04:32:30;12.25;;;6.00;;
26908;SDS011;14477;51.038;4.588;2023-05-10T04:34:56;12.98;;;6.13;;
26908;SDS011;14477;51.038;4.588;2023-05-10T04:37:22;13.48;;;6.13;;
26908;SDS011;14477;51.038;4.588;2023-05-10T04:39:48;14.70;;;6.70;;
26908;SDS011;14477;51.038;4.588;2023-05-10T04:42:14;14.18;;;6.45;;
26908;SDS011;14477;51.038;4.588;2023-05-10T04:44:40;13.85;;;6.60;;
26908;SDS011;14477;51.038;4.588;2023-05-10T04:47:06;14.97;;;6.83;;
26908;SDS011;14477;51.038;4.588;2023-05-10T04:49:32;17.25;;;7.30;;
26908;SDS011;14477;51.038;4.588;2023-05-10T04:51:57;16.25;;;7.43;;
26908;SDS011;14477;51.038;4.588;2023-05-10T04:54:23;18.43;;;7.20;;
26908;SDS011;14477;51.038;4.588;2023-05-10T04:56:49;17.48;;;7.28;;
26908;SDS011;14477;51.038;4.588;2023-05-10T04:59:15;17.33;;;7.70;;
26908;SDS011;14477;51.038;4.588;2023-05-10T05:01:41;17.85;;;7.35;;
26908;SDS011;14477;51.038;4.588;2023-05-10T05:04:07;17.42;;;7.32;;
26908;SDS011;14477;51.038;4.588;2023-05-10T05:06:33;18.20;;;7.23;;
26908;SDS011;14477;51.038;4.588;2023-05-10T05:08:59;16.50;;;7.10;;
26908;SDS011;14477;51.038;4.588;2023-05-10T05:11:24;19.60;;;8.30;;
26908;SDS011;14477;51.038;4.588;2023-05-10T05:13:50;19.75;;;8.43;;
26908;SDS011;14477;51.038;4.588;2023-05-10T05:16:16;19.33;;;8.17;;
26908;SDS011;14477;51.038;4.588;2023-05-10T05:18:42;18.15;;;7.88;;
26908;SDS011;14477;51.038;4.588;2023-05-10T05:21:14;19.08;;;8.38;;
26908;SDS011;14477;51.038;4.588;2023-05-10T05:23:41;19.80;;;7.93;;
26908;SDS011;14477;51.038;4.588;2023-05-10T05:26:07;17.55;;;7.90;;
26908;SDS011;14477;51.038;4.588;2023-05-10T05:28:33;19.50;;;8.15;;
26908;SDS011;14477;51.038;4.588;2023-05-10T05:31:02;18.50;;;7.47;;
26908;SDS011;14477;51.038;4.588;2023-05-10T05:33:29;17.08;;;7.47;;
26908;SDS011;14477;51.038;4.588;2023-05-10T05:35:55;16.55;;;7.28;;
26908;SDS011;14477;51.038;4.588;2023-05-10T05:38:20;17.60;;;7.80;;
26908;SDS011;14477;51.038;4.588;2023-05-10T05:40:46;17.52;;;7.38;;
26908;SDS011;14477;51.038;4.588;2023-05-10T05:43:12;16.25;;;6.97;;
26908;SDS011;14477;51.038;4.588;2023-05-10T05:45:38;17.27;;;7.37;;
26908;SDS011;14477;51.038;4.588;2023-05-10T05:48:04;14.65;;;7.18;;
26908;SDS011;14477;51.038;4.588;2023-05-10T05:50:30;16.42;;;7.22;;
26908;SDS011;14477;51.038;4.588;2023-05-10T05:52:56;17.55;;;7.25;;
26908;SDS011;14477;51.038;4.588;2023-05-10T05:55:22;14.97;;;6.70;;
26908;SDS011;14477;51.038;4.588;2023-05-10T05:57:49;15.98;;;6.88;;
26908;SDS011;14477;51.038;4.588;2023-05-10T06:00:15;14.57;;;6.80;;
26908;SDS011;14477;51.038;4.588;2023-05-10T06:02:42;15.35;;;6.78;;
26908;SDS011;14477;51.038;4.588;2023-05-10T06:05:08;14.10;;;6.60;;
26908;SDS011;14477;51.038;4.588;2023-05-10T06:07:34;15.77;;;7.07;;
26908;SDS011;14477;51.038;4.588;2023-05-10T06:10:00;15.87;;;7.43;;
26908;SDS011;14477;51.038;4.588;2023-05-10T06:12:26;15.20;;;7.15;;
26908;SDS011;14477;51.038;4.588;2023-05-10T06:14:52;15.32;;;6.93;;
26908;SDS011;14477;51.038;4.588;2023-05-10T06:17:17;14.17;;;6.70;;
26908;SDS011;14477;51.038;4.588;2023-05-10T06:19:43;14.95;;;7.05;;
26908;SDS011;14477;51.038;4.588;2023-05-10T06:22:09;16.48;;;7.32;;
26908;SDS011;14477;51.038;4.588;2023-05-10T06:24:35;14.77;;;7.17;;
26908;SDS011;14477;51.038;4.588;2023-05-10T06:27:01;16.60;;;7.03;;
26908;SDS011;14477;51.038;4.588;2023-05-10T06:29:27;15.45;;;7.38;;
26908;SDS011;14477;51.038;4.588;2023-05-10T06:31:52;17.67;;;8.03;;
26908;SDS011;14477;51.038;4.588;2023-05-10T06:34:19;14.05;;;7.07;;
26908;SDS011;14477;51.038;4.588;2023-05-10T06:36:44;15.90;;;7.43;;
26908;SDS011;14477;51.038;4.588;2023-05-10T06:39:10;14.75;;;6.97;;
26908;SDS011;14477;51.038;4.588;2023-05-10T06:41:37;15.15;;;7.35;;
26908;SDS011;14477;51.038;4.588;2023-05-10T06:44:02;13.13;;;6.65;;
26908;SDS011;14477;51.038;4.588;2023-05-10T06:46:29;16.07;;;7.20;;
26908;SDS011;14477;51.038;4.588;2023-05-10T06:48:54;13.95;;;6.90;;
26908;SDS011;14477;51.038;4.588;2023-05-10T06:51:20;14.95;;;7.20;;
26908;SDS011;14477;51.038;4.588;2023-05-10T06:53:46;13.43;;;6.40;;
26908;SDS011;14477;51.038;4.588;2023-05-10T06:56:12;13.52;;;6.15;;
26908;SDS011;14477;51.038;4.588;2023-05-10T06:58:39;12.32;;;6.38;;
26908;SDS011;14477;51.038;4.588;2023-05-10T07:01:05;13.87;;;6.23;;
26908;SDS011;14477;51.038;4.588;2023-05-10T07:03:31;14.05;;;6.90;;
26908;SDS011;14477;51.038;4.588;2023-05-10T07:06:03;13.75;;;6.50;;
26908;SDS011;14477;51.038;4.588;2023-05-10T07:08:30;11.73;;;5.93;;
26908;SDS011;14477;51.038;4.588;2023-05-10T07:11:03;12.53;;;6.47;;
26908;SDS011;14477;51.038;4.588;2023-05-10T07:13:33;13.68;;;6.15;;
26908;SDS011;14477;51.038;4.588;2023-05-10T07:15:59;11.65;;;5.95;;
26908;SDS011;14477;51.038;4.588;2023-05-10T07:18:27;12.07;;;6.18;;
26908;SDS011;14477;51.038;4.588;2023-05-10T07:20:53;12.88;;;6.57;;
26908;SDS011;14477;51.038;4.588;2023-05-10T07:23:19;12.37;;;6.03;;
26908;SDS011;14477;51.038;4.588;2023-05-10T07:25:48;11.77;;;6.07;;
26908;SDS011;14477;51.038;4.588;2023-05-10T07:28:16;12.70;;;6.10;;
26908;SDS011;14477;51.038;4.588;2023-05-10T07:30:42;12.13;;;6.60;;
26908;SDS011;14477;51.038;4.588;2023-05-10T07:33:09;13.77;;;6.47;;
26908;SDS011;14477;51.038;4.588;2023-05-10T07:35:36;12.38;;;6.38;;
26908;SDS011;14477;51.038;4.588;2023-05-10T07:38:02;12.30;;;6.65;;
26908;SDS011;14477;51.038;4.588;2023-05-10T07:40:28;12.70;;;6.93;;
26908;SDS011;14477;51.038;4.588;2023-05-10T07:42:54;12.70;;;6.40;;
26908;SDS011;14477;51.038;4.588;2023-05-10T07:45:21;12.82;;;6.28;;
26908;SDS011;14477;51.038;4.588;2023-05-10T07:47:47;12.95;;;6.97;;
26908;SDS011;14477;51.038;4.588;2023-05-10T07:50:13;12.73;;;6.13;;
26908;SDS011;14477;51.038;4.588;2023-05-10T07:52:39;11.73;;;6.20;;
26908;SDS011;14477;51.038;4.588;2023-05-10T07:55:05;12.30;;;6.57;;
26908;SDS011;14477;51.038;4.588;2023-05-10T07:57:33;13.23;;;6.45;;
26908;SDS011;14477;51.038;4.588;2023-05-10T07:59:59;12.30;;;5.90;;
26908;SDS011;14477;51.038;4.588;2023-05-10T08:02:25;11.95;;;6.22;;
26908;SDS011;14477;51.038;4.588;2023-05-10T08:04:51;11.25;;;6.45;;
26908;SDS011;14477;51.038;4.588;2023-05-10T08:07:17;12.10;;;6.27;;
26908;SDS011;14477;51.038;4.588;2023-05-10T08:09:42;12.98;;;7.18;;
26908;SDS011;14477;51.038;4.588;2023-05-10T08:12:08;14.25;;;6.50;;
26908;SDS011;14477;51.038;4.588;2023-05-10T08:14:34;13.83;;;6.47;;
26908;SDS011;14477;51.038;4.588;2023-05-10T08:17:02;14.30;;;7.30;;
26908;SDS011;14477;51.038;4.588;2023-05-10T08:19:28;14.00;;;7.00;;
26908;SDS011;14477;51.038;4.588;2023-05-10T08:21:54;14.73;;;7.38;;
26908;SDS011;14477;51.038;4.588;2023-05-10T08:24:21;14.40;;;8.00;;
26908;SDS011;14477;51.038;4.588;2023-05-10T08:26:47;14.85;;;7.68;;
26908;SDS011;14477;51.038;4.588;2023-05-10T08:29:13;13.73;;;7.30;;
26908;SDS011;14477;51.038;4.588;2023-05-10T08:31:39;14.18;;;7.20;;
26908;SDS011;14477;51.038;4.588;2023-05-10T08:34:05;13.77;;;7.00;;
26908;SDS011;14477;51.038;4.588;2023-05-10T08:36:31;11.95;;;6.75;;
26908;SDS011;14477;51.038;4.588;2023-05-10T08:38:57;13.50;;;6.80;;
26908;SDS011;14477;51.038;4.588;2023-05-10T08:41:24;12.43;;;6.72;;
26908;SDS011;14477;51.038;4.588;2023-05-10T08:43:51;14.10;;;7.50;;
26908;SDS011;14477;51.038;4.588;2023-05-10T08:46:19;13.10;;;6.80;;
26908;SDS011;14477;51.038;4.588;2023-05-10T08:48:46;10.90;;;6.07;;
26908;SDS011;14477;51.038;4.588;2023-05-10T08:51:14;12.70;;;6.20;;
26908;SDS011;14477;51.038;4.588;2023-05-10T08:53:42;12.90;;;5.97;;
26908;SDS011;14477;51.038;4.588;2023-05-10T08:56:09;12.70;;;6.28;;
26908;SDS011;14477;51.038;4.588;2023-05-10T08:58:35;12.70;;;5.95;;
26908;SDS011;14477;51.038;4.588;2023-05-10T09:01:02;11.07;;;5.72;;
26908;SDS011;14477;51.038;4.588;2023-05-10T09:03:30;11.43;;;5.77;;
26908;SDS011;14477;51.038;4.588;2023-05-10T09:05:56;11.00;;;6.03;;
26908;SDS011;14477;51.038;4.588;2023-05-10T09:08:23;10.68;;;5.45;;
26908;SDS011;14477;51.038;4.588;2023-05-10T09:10:53;9.65;;;5.28;;
26908;SDS011;14477;51.038;4.588;2023-05-10T09:13:20;10.32;;;5.60;;
26908;SDS011;14477;51.038;4.588;2023-05-10T09:15:47;8.70;;;5.10;;
26908;SDS011;14477;51.038;4.588;2023-05-10T09:18:14;9.10;;;4.88;;
26908;SDS011;14477;51.038;4.588;2023-05-10T09:20:40;9.38;;;4.85;;
26908;SDS011;14477;51.038;4.588;2023-05-10T09:23:06;9.80;;;4.90;;
26908;SDS011;14477;51.038;4.588;2023-05-10T09:25:33;8.40;;;4.50;;
26908;SDS011;14477;51.038;4.588;2023-05-10T09:27:59;8.97;;;4.60;;
26908;SDS011;14477;51.038;4.588;2023-05-10T09:30:26;7.60;;;4.47;;
26908;SDS011;14477;51.038;4.588;2023-05-10T09:32:56;8.18;;;4.18;;
26908;SDS011;14477;51.038;4.588;2023-05-10T09:35:24;8.32;;;4.13;;
26908;SDS011;14477;51.038;4.588;2023-05-10T09:37:52;9.05;;;4.60;;
26908;SDS011;14477;51.038;4.588;2023-05-10T09:40:20;7.03;;;3.93;;
26908;SDS011;14477;51.038;4.588;2023-05-10T09:45:32;9.10;;;4.70;;
26908;SDS011;14477;51.038;4.588;2023-05-10T09:47:59;8.50;;;4.20;;
26908;SDS011;14477;51.038;4.588;2023-05-10T09:50:27;8.60;;;4.35;;
26908;SDS011;14477;51.038;4.588;2023-05-10T09:55:24;8.98;;;4.50;;
26908;SDS011;14477;51.038;4.588;2023-05-10T09:58:10;8.05;;;4.13;;
26908;SDS011;14477;51.038;4.588;2023-05-10T10:00:36;8.65;;;4.70;;
26908;SDS011;14477;51.038;4.588;2023-05-10T10:03:03;8.63;;;4.30;;
26908;SDS011;14477;51.038;4.588;2023-05-10T10:05:31;7.72;;;4.30;;
26908;SDS011;14477;51.038;4.588;2023-05-10T10:07:58;8.32;;;4.10;;
26908;SDS011;14477;51.038;4.588;2023-05-10T10:10:25;7.32;;;4.25;;
26908;SDS011;14477;51.038;4.588;2023-05-10T10:12:51;6.25;;;3.70;;
26908;SDS011;14477;51.038;4.588;2023-05-10T10:15:17;6.80;;;3.90;;
26908;SDS011;14477;51.038;4.588;2023-05-10T10:17:44;6.70;;;3.50;;
26908;SDS011;14477;51.038;4.588;2023-05-10T10:20:11;6.68;;;3.90;;
26908;SDS011;14477;51.038;4.588;2023-05-10T10:22:38;7.22;;;3.80;;
26908;SDS011;14477;51.038;4.588;2023-05-10T10:25:04;6.78;;;3.97;;
26908;SDS011;14477;51.038;4.588;2023-05-10T10:30:27;6.72;;;4.05;;
26908;SDS011;14477;51.038;4.588;2023-05-10T10:36:01;6.93;;;3.75;;
26908;SDS011;14477;51.038;4.588;2023-05-10T10:38:35;7.00;;;4.07;;
26908;SDS011;14477;51.038;4.588;2023-05-10T10:55:07;7.47;;;3.67;;
26908;SDS011;14477;51.038;4.588;2023-05-10T10:57:48;8.27;;;3.92;;
26908;SDS011;14477;51.038;4.588;2023-05-10T11:02:52;6.65;;;3.58;;
26908;SDS011;14477;51.038;4.588;2023-05-10T11:08:11;6.57;;;3.33;;
26908;SDS011;14477;51.038;4.588;2023-05-10T11:10:37;6.00;;;3.17;;
26908;SDS011;14477;51.038;4.588;2023-05-10T11:13:10;6.32;;;3.10;;
26908;SDS011;14477;51.038;4.588;2023-05-10T11:15:37;6.32;;;3.45;;
26908;SDS011;14477;51.038;4.588;2023-05-10T11:20:58;5.60;;;3.30;;
26908;SDS011;14477;51.038;4.588;2023-05-10T11:23:31;5.75;;;3.22;;
26908;SDS011;14477;51.038;4.588;2023-05-10T11:25:59;4.60;;;2.95;;
26908;SDS011;14477;51.038;4.588;2023-05-10T11:28:26;5.85;;;3.28;;
26908;SDS011;14477;51.038;4.588;2023-05-10T11:30:53;4.63;;;3.08;;
26908;SDS011;14477;51.038;4.588;2023-05-10T11:33:20;5.53;;;3.10;;
26908;SDS011;14477;51.038;4.588;2023-05-10T11:35:46;4.85;;;2.88;;
26908;SDS011;14477;51.038;4.588;2023-05-10T11:38:12;5.67;;;3.17;;
26908;SDS011;14477;51.038;4.588;2023-05-10T11:40:38;5.70;;;3.17;;
26908;SDS011;14477;51.038;4.588;2023-05-10T11:43:05;5.30;;;3.60;;
26908;SDS011;14477;51.038;4.588;2023-05-10T11:45:32;6.50;;;3.33;;
26908;SDS011;14477;51.038;4.588;2023-05-10T11:47:58;5.80;;;3.55;;
26908;SDS011;14477;51.038;4.588;2023-05-10T11:50:25;5.93;;;3.40;;
26908;SDS011;14477;51.038;4.588;2023-05-10T11:52:54;6.00;;;3.40;;
26908;SDS011;14477;51.038;4.588;2023-05-10T11:55:23;5.47;;;3.33;;
26908;SDS011;14477;51.038;4.588;2023-05-10T11:57:59;6.20;;;3.63;;
26908;SDS011;14477;51.038;4.588;2023-05-10T12:00:26;5.72;;;3.53;;
26908;SDS011;14477;51.038;4.588;2023-05-10T12:02:53;5.73;;;3.53;;
26908;SDS011;14477;51.038;4.588;2023-05-10T12:05:18;5.22;;;3.08;;
26908;SDS011;14477;51.038;4.588;2023-05-10T12:07:44;5.00;;;3.07;;
26908;SDS011;14477;51.038;4.588;2023-05-10T12:10:11;4.67;;;3.00;;
26908;SDS011;14477;51.038;4.588;2023-05-10T12:12:45;5.65;;;2.97;;
26908;SDS011;14477;51.038;4.588;2023-05-10T12:15:18;4.78;;;3.03;;
26908;SDS011;14477;51.038;4.588;2023-05-10T12:17:45;5.00;;;2.88;;
26908;SDS011;14477;51.038;4.588;2023-05-10T12:20:15;5.03;;;3.15;;
26908;SDS011;14477;51.038;4.588;2023-05-10T12:22:50;4.97;;;3.30;;
26908;SDS011;14477;51.038;4.588;2023-05-10T12:25:18;4.57;;;2.72;;
26908;SDS011;14477;51.038;4.588;2023-05-10T12:27:51;5.15;;;3.05;;
26908;SDS011;14477;51.038;4.588;2023-05-10T12:30:25;5.55;;;3.42;;
26908;SDS011;14477;51.038;4.588;2023-05-10T12:32:52;6.07;;;2.95;;
26908;SDS011;14477;51.038;4.588;2023-05-10T12:35:19;4.43;;;3.00;;
26908;SDS011;14477;51.038;4.588;2023-05-10T12:37:50;9.07;;;2.80;;
26908;SDS011;14477;51.038;4.588;2023-05-10T12:40:16;4.53;;;2.88;;
26908;SDS011;14477;51.038;4.588;2023-05-10T12:42:42;4.97;;;2.90;;
26908;SDS011;14477;51.038;4.588;2023-05-10T12:45:10;4.37;;;2.60;;
26908;SDS011;14477;51.038;4.588;2023-05-10T12:47:36;3.90;;;2.55;;
26908;SDS011;14477;51.038;4.588;2023-05-10T12:50:03;5.60;;;2.90;;
26908;SDS011;14477;51.038;4.588;2023-05-10T12:52:30;5.65;;;3.10;;
26908;SDS011;14477;51.038;4.588;2023-05-10T12:55:00;4.20;;;2.78;;
26908;SDS011;14477;51.038;4.588;2023-05-10T12:57:26;4.37;;;2.90;;
26908;SDS011;14477;51.038;4.588;2023-05-10T12:59:53;4.15;;;2.88;;
26908;SDS011;14477;51.038;4.588;2023-05-10T13:02:19;4.68;;;3.00;;
26908;SDS011;14477;51.038;4.588;2023-05-10T13:04:46;4.55;;;2.80;;
26908;SDS011;14477;51.038;4.588;2023-05-10T13:07:13;4.40;;;2.55;;
26908;SDS011;14477;51.038;4.588;2023-05-10T13:09:39;4.07;;;2.63;;
26908;SDS011;14477;51.038;4.588;2023-05-10T13:12:05;3.25;;;2.33;;
26908;SDS011;14477;51.038;4.588;2023-05-10T13:14:30;4.00;;;2.50;;
26908;SDS011;14477;51.038;4.588;2023-05-10T13:16:56;3.70;;;2.57;;
26908;SDS011;14477;51.038;4.588;2023-05-10T13:19:22;4.03;;;2.80;;
26908;SDS011;14477;51.038;4.588;2023-05-10T13:21:48;4.45;;;2.80;;
26908;SDS011;14477;51.038;4.588;2023-05-10T13:24:14;4.47;;;2.95;;
26908;SDS011;14477;51.038;4.588;2023-05-10T13:26:40;4.43;;;2.80;;
26908;SDS011;14477;51.038;4.588;2023-05-10T13:29:06;3.75;;;2.50;;
26908;SDS011;14477;51.038;4.588;2023-05-10T13:31:33;4.30;;;2.72;;
26908;SDS011;14477;51.038;4.588;2023-05-10T13:33:59;4.85;;;3.25;;
26908;SDS011;14477;51.038;4.588;2023-05-10T13:36:25;4.20;;;2.67;;
26908;SDS011;14477;51.038;4.588;2023-05-10T13:38:51;4.53;;;2.67;;
26908;SDS011;14477;51.038;4.588;2023-05-10T13:41:17;3.55;;;2.53;;
26908;SDS011;14477;51.038;4.588;2023-05-10T13:43:43;4.20;;;2.60;;
26908;SDS011;14477;51.038;4.588;2023-05-10T13:46:09;3.97;;;2.55;;
26908;SDS011;14477;51.038;4.588;2023-05-10T13:48:35;4.30;;;2.60;;
26908;SDS011;14477;51.038;4.588;2023-05-10T13:51:02;4.53;;;2.75;;
26908;SDS011;14477;51.038;4.588;2023-05-10T13:53:29;3.88;;;2.70;;
26908;SDS011;14477;51.038;4.588;2023-05-10T13:55:55;3.70;;;2.50;;
26908;SDS011;14477;51.038;4.588;2023-05-10T13:58:21;4.35;;;2.63;;
26908;SDS011;14477;51.038;4.588;2023-05-10T14:00:48;3.90;;;2.72;;
26908;SDS011;14477;51.038;4.588;2023-05-10T14:03:14;4.67;;;2.97;;
26908;SDS011;14477;51.038;4.588;2023-05-10T14:05:40;4.28;;;3.20;;
26908;SDS011;14477;51.038;4.588;2023-05-10T14:08:05;4.45;;;2.83;;
26908;SDS011;14477;51.038;4.588;2023-05-10T14:10:32;4.30;;;2.87;;
26908;SDS011;14477;51.038;4.588;2023-05-10T14:12:58;4.18;;;3.13;;
26908;SDS011;14477;51.038;4.588;2023-05-10T14:15:24;5.50;;;3.30;;
26908;SDS011;14477;51.038;4.588;2023-05-10T14:17:50;5.32;;;3.10;;
26908;SDS011;14477;51.038;4.588;2023-05-10T14:20:16;4.47;;;3.13;;
26908;SDS011;14477;51.038;4.588;2023-05-10T14:22:42;5.85;;;3.63;;
26908;SDS011;14477;51.038;4.588;2023-05-10T14:25:08;5.47;;;3.63;;
26908;SDS011;14477;51.038;4.588;2023-05-10T14:27:34;5.80;;;3.50;;
26908;SDS011;14477;51.038;4.588;2023-05-10T14:30:00;5.20;;;3.63;;
26908;SDS011;14477;51.038;4.588;2023-05-10T14:32:26;4.37;;;3.10;;
26908;SDS011;14477;51.038;4.588;2023-05-10T14:34:53;5.27;;;3.50;;
26908;SDS011;14477;51.038;4.588;2023-05-10T14:37:18;5.15;;;3.22;;
26908;SDS011;14477;51.038;4.588;2023-05-10T14:39:44;6.50;;;3.88;;
26908;SDS011;14477;51.038;4.588;2023-05-10T14:42:11;5.43;;;4.00;;
26908;SDS011;14477;51.038;4.588;2023-05-10T14:44:37;5.20;;;3.70;;
26908;SDS011;14477;51.038;4.588;2023-05-10T14:47:03;5.35;;;3.70;;
26908;SDS011;14477;51.038;4.588;2023-05-10T14:49:29;5.20;;;3.70;;
26908;SDS011;14477;51.038;4.588;2023-05-10T14:51:55;6.07;;;3.40;;
26908;SDS011;14477;51.038;4.588;2023-05-10T14:54:21;6.72;;;4.05;;
26908;SDS011;14477;51.038;4.588;2023-05-10T14:56:46;7.03;;;4.40;;
26908;SDS011;14477;51.038;4.588;2023-05-10T14:59:15;6.97;;;4.18;;
26908;SDS011;14477;51.038;4.588;2023-05-10T15:01:41;7.97;;;4.83;;
26908;SDS011;14477;51.038;4.588;2023-05-10T15:04:07;8.32;;;4.68;;
26908;SDS011;14477;51.038;4.588;2023-05-10T15:06:33;6.68;;;4.60;;
26908;SDS011;14477;51.038;4.588;2023-05-10T15:09:00;7.25;;;4.40;;
26908;SDS011;14477;51.038;4.588;2023-05-10T15:11:28;7.00;;;4.50;;
26908;SDS011;14477;51.038;4.588;2023-05-10T15:13:54;7.03;;;4.28;;
26908;SDS011;14477;51.038;4.588;2023-05-10T15:16:20;6.65;;;4.25;;
26908;SDS011;14477;51.038;4.588;2023-05-10T15:18:46;6.68;;;4.13;;
26908;SDS011;14477;51.038;4.588;2023-05-10T15:21:13;6.82;;;4.47;;
26908;SDS011;14477;51.038;4.588;2023-05-10T15:23:39;7.13;;;4.43;;
26908;SDS011;14477;51.038;4.588;2023-05-10T15:26:05;6.63;;;4.35;;
26908;SDS011;14477;51.038;4.588;2023-05-10T15:28:31;7.72;;;4.32;;
26908;SDS011;14477;51.038;4.588;2023-05-10T15:30:56;7.17;;;3.87;;
26908;SDS011;14477;51.038;4.588;2023-05-10T15:33:22;8.20;;;4.47;;
26908;SDS011;14477;51.038;4.588;2023-05-10T15:35:48;5.87;;;3.70;;
26908;SDS011;14477;51.038;4.588;2023-05-10T15:38:14;3.53;;;2.60;;
26908;SDS011;14477;51.038;4.588;2023-05-10T15:40:40;2.75;;;1.90;;